createdAt,value
2022-11-24T00:02:11.230Z,7.26
2022-11-24T00:05:13.294Z,8.04
2022-11-24T00:08:15.201Z,7.90
2022-11-24T00:11:24.285Z,7.63
2022-11-24T00:14:26.634Z,7.91
2022-11-24T00:17:29.412Z,7.62
2022-11-24T00:20:31.240Z,6.92
2022-11-24T00:23:33.357Z,8.11
2022-11-24T00:26:36.242Z,8.17
2022-11-24T00:29:38.088Z,7.91
2022-11-24T00:32:39.933Z,7.35
2022-11-24T00:35:41.810Z,8.04
2022-11-24T00:38:43.859Z,7.99
2022-11-24T00:41:45.697Z,8.03
2022-11-24T00:44:47.527Z,8.41
2022-11-24T00:47:49.308Z,8.81
2022-11-24T00:50:58.288Z,8.31
2022-11-24T00:54:01.026Z,7.47
2022-11-24T00:57:02.939Z,7.20
2022-11-24T01:00:05.002Z,7.94
2022-11-24T01:03:07.630Z,8.12
2022-11-24T01:06:09.388Z,7.93
2022-11-24T01:09:11.992Z,7.41
2022-11-24T01:12:13.805Z,7.92
2022-11-24T01:15:15.609Z,7.84
2022-11-24T01:18:17.441Z,7.83
2022-11-24T01:21:20.169Z,7.48
2022-11-24T01:24:22.089Z,7.93
2022-11-24T01:27:23.936Z,7.50
2022-11-24T01:30:25.769Z,7.13
2022-11-24T01:33:27.669Z,7.39
2022-11-24T01:36:29.477Z,7.32
2022-11-24T01:39:31.301Z,7.56
2022-11-24T01:42:59.500Z,7.61
2022-11-24T01:46:24.384Z,6.82
2022-11-24T01:49:33.878Z,7.85
2022-11-24T01:52:40.113Z,7.65
2022-11-24T01:55:41.888Z,8.09
2022-11-24T01:58:43.903Z,7.90
2022-11-24T02:01:46.038Z,7.18
2022-11-24T02:04:47.948Z,7.46
2022-11-24T02:07:49.872Z,7.50
2022-11-24T02:10:51.785Z,7.60
2022-11-24T02:13:53.649Z,7.68
2022-11-24T02:16:55.420Z,7.38
2022-11-24T02:20:04.550Z,7.27
2022-11-24T02:23:09.429Z,7.58
2022-11-24T02:26:17.505Z,7.25
2022-11-24T02:29:20.624Z,8.05
2022-11-24T02:32:22.431Z,7.29
2022-11-24T02:35:25.452Z,7.91
2022-11-24T02:38:34.066Z,7.52
2022-11-24T02:41:35.854Z,7.18
2022-11-24T02:44:39.271Z,7.23
2022-11-24T02:47:41.101Z,7.49
2022-11-24T02:50:43.029Z,7.44
2022-11-24T02:53:44.830Z,7.42
2022-11-24T02:56:46.642Z,7.40
2022-11-24T02:59:48.429Z,7.85
2022-11-24T03:02:50.434Z,7.38
2022-11-24T03:05:52.325Z,7.45
2022-11-24T03:08:54.112Z,7.90
2022-11-24T03:11:55.914Z,7.64
2022-11-24T03:14:57.715Z,7.46
2022-11-24T03:17:59.543Z,8.10
2022-11-24T03:21:01.329Z,7.05
2022-11-24T03:24:03.176Z,7.54
2022-11-24T03:27:04.976Z,7.58
2022-11-24T03:30:07.165Z,7.77
2022-11-24T03:33:08.986Z,6.73
2022-11-24T03:36:10.781Z,6.30
2022-11-24T03:39:12.592Z,6.46
2022-11-24T03:42:14.387Z,6.39
2022-11-24T03:45:44.310Z,6.09
2022-11-24T03:48:38.009Z,6.49
2022-11-24T03:51:39.867Z,6.02
2022-11-24T03:54:42.389Z,6.06
2022-11-24T03:57:44.222Z,6.17
2022-11-24T04:00:46.216Z,6.24
2022-11-24T04:03:48.060Z,6.10
2022-11-24T04:06:49.883Z,6.07
2022-11-24T04:09:51.721Z,6.15
2022-11-24T04:12:53.503Z,5.93
2022-11-24T04:15:55.430Z,6.29
2022-11-24T04:18:57.604Z,6.21
2022-11-24T04:21:59.419Z,5.97
2022-11-24T04:25:01.368Z,6.03
2022-11-24T04:28:03.333Z,6.26
2022-11-24T04:31:05.526Z,6.05
2022-11-24T04:34:07.371Z,5.67
2022-11-24T04:37:09.231Z,5.98
2022-11-24T04:40:11.469Z,5.36
2022-11-24T04:43:13.564Z,5.61
2022-11-24T04:46:15.611Z,6.58
2022-11-24T04:49:17.517Z,6.70
2022-11-24T04:52:19.883Z,6.40
2022-11-24T04:55:21.712Z,7.05
2022-11-24T04:58:23.513Z,6.49
2022-11-24T05:01:25.480Z,5.94
2022-11-24T05:04:27.408Z,6.97
2022-11-24T05:07:29.430Z,7.07
2022-11-24T05:10:37.365Z,6.30
2022-11-24T05:13:39.224Z,6.13
2022-11-24T05:16:41.142Z,6.48
2022-11-24T05:19:42.937Z,6.62
2022-11-24T05:22:44.916Z,6.88
2022-11-24T05:25:47.905Z,6.92
2022-11-24T05:28:49.978Z,7.13
2022-11-24T05:31:51.821Z,6.87
2022-11-24T05:34:54.684Z,7.12
2022-11-24T05:37:57.867Z,6.75
2022-11-24T05:41:00.648Z,6.38
2022-11-24T05:44:02.529Z,6.22
2022-11-24T05:47:04.582Z,5.55
2022-11-24T05:50:06.825Z,6.38
2022-11-24T05:53:12.235Z,6.08
2022-11-24T05:56:14.148Z,6.35
2022-11-24T05:59:16.009Z,5.71
2022-11-24T06:02:17.942Z,6.08
2022-11-24T06:05:19.904Z,6.28
2022-11-24T06:08:22.953Z,7.22
2022-11-24T06:11:27.428Z,7.38
2022-11-24T06:14:29.257Z,7.14
2022-11-24T06:17:31.258Z,6.99
2022-11-24T06:20:33.296Z,6.79
2022-11-24T06:23:35.403Z,6.39
2022-11-24T06:26:37.235Z,7.06
2022-11-24T06:29:39.216Z,7.07
2022-11-24T06:32:49.137Z,6.17
2022-11-24T06:35:51.726Z,5.94
2022-11-24T06:38:54.044Z,6.50
2022-11-24T06:41:55.879Z,6.63
2022-11-24T06:44:57.707Z,6.87
2022-11-24T06:47:59.538Z,6.21
2022-11-24T06:51:02.177Z,6.68
2022-11-24T06:54:07.724Z,7.20
2022-11-24T06:57:09.540Z,7.63
2022-11-24T07:00:11.988Z,7.34
2022-11-24T07:03:14.515Z,7.41
2022-11-24T07:06:19.385Z,7.38
2022-11-24T07:09:21.330Z,7.31
2022-11-24T07:12:24.352Z,7.36
2022-11-24T07:15:26.548Z,6.99
2022-11-24T07:18:28.497Z,7.51
2022-11-24T07:21:30.848Z,7.51
2022-11-24T07:24:33.026Z,7.79
2022-11-24T07:27:35.380Z,7.69
2022-11-24T07:30:37.353Z,6.92
2022-11-24T07:33:39.275Z,7.26
2022-11-24T07:36:41.454Z,7.22
2022-11-24T07:39:43.409Z,7.86
2022-11-24T07:42:45.303Z,7.95
2022-11-24T07:45:53.320Z,7.28
2022-11-24T07:48:55.280Z,7.60
2022-11-24T07:51:57.338Z,7.09
2022-11-24T07:54:59.693Z,6.93
2022-11-24T07:58:01.553Z,7.32
2022-11-24T08:01:13.605Z,7.55
2022-11-24T08:04:15.589Z,8.04
2022-11-24T08:07:17.508Z,8.63
2022-11-24T08:10:21.896Z,8.66
2022-11-24T08:13:23.743Z,8.72
2022-11-24T08:16:25.757Z,8.92
2022-11-24T08:19:27.677Z,8.89
2022-11-24T08:22:29.801Z,8.86
2022-11-24T08:25:32.842Z,8.35
2022-11-24T08:28:35.339Z,8.26
2022-11-24T08:31:38.307Z,8.16
2022-11-24T08:34:40.221Z,7.59
2022-11-24T08:37:42.134Z,7.48
2022-11-24T08:40:43.966Z,8.05
2022-11-24T08:43:45.987Z,7.66
2022-11-24T08:46:47.853Z,8.09
2022-11-24T08:49:49.747Z,7.53
2022-11-24T08:52:52.619Z,7.71
2022-11-24T08:55:59.014Z,7.44
2022-11-24T08:59:01.264Z,7.40
2022-11-24T09:02:03.303Z,7.97
2022-11-24T09:05:12.904Z,7.56
2022-11-24T09:08:24.784Z,7.92
2022-11-24T09:11:27.398Z,7.85
2022-11-24T09:14:29.535Z,7.69
2022-11-24T09:17:31.460Z,7.69
2022-11-24T09:20:33.651Z,8.24
2022-11-24T09:23:35.998Z,8.50
2022-11-24T09:26:40.644Z,8.32
2022-11-24T09:29:45.195Z,8.23
2022-11-24T09:32:47.030Z,8.36
2022-11-24T09:35:50.040Z,7.78
2022-11-24T09:38:52.288Z,7.64
2022-11-24T09:42:12.976Z,8.89
2022-11-24T09:46:04.611Z,8.89
2022-11-24T09:49:03.576Z,8.56
2022-11-24T09:52:08.957Z,8.82
2022-11-24T09:55:34.327Z,9.10
2022-11-24T09:58:42.537Z,9.64
2022-11-24T10:01:45.114Z,8.97
2022-11-24T10:04:47.132Z,9.26
2022-11-24T10:07:57.921Z,9.25
2022-11-24T10:11:00.649Z,8.82
2022-11-24T10:14:21.118Z,8.31
2022-11-24T10:17:29.460Z,7.86
2022-11-24T10:20:31.183Z,8.08
2022-11-24T10:23:41.308Z,8.64
2022-11-24T10:26:47.014Z,9.39
2022-11-24T10:29:50.038Z,9.37
2022-11-24T10:33:01.168Z,8.39
2022-11-24T10:36:11.131Z,8.72
2022-11-24T10:39:32.471Z,8.66
2022-11-24T10:42:37.684Z,8.81
2022-11-24T10:45:39.688Z,8.68
2022-11-24T10:48:43.578Z,8.84
2022-11-24T10:52:02.141Z,8.43
2022-11-24T10:55:04.976Z,8.34
2022-11-24T10:58:14.789Z,7.66
2022-11-24T11:01:21.405Z,8.31
2022-11-24T11:04:33.640Z,8.12
2022-11-24T11:07:35.619Z,8.05
2022-11-24T11:10:38.115Z,8.03
2022-11-24T11:13:51.066Z,8.30
2022-11-24T11:16:53.510Z,8.80
2022-11-24T11:20:01.979Z,9.08
2022-11-24T11:23:13.655Z,9.74
2022-11-24T11:26:24.807Z,9.69
2022-11-24T11:36:15.887Z,7.94
2022-11-24T11:39:17.715Z,9.26
2022-11-24T11:46:00.075Z,9.30
2022-11-24T11:49:02.084Z,9.52
2022-11-24T11:52:09.255Z,9.42
2022-11-24T11:55:30.501Z,9.53
2022-11-24T11:58:35.148Z,9.28
2022-11-24T12:01:52.294Z,10.66
2022-11-24T12:04:54.205Z,9.79
2022-11-24T12:08:10.954Z,8.61
2022-11-24T12:11:21.177Z,9.41
2022-11-24T12:14:23.283Z,9.53
2022-11-24T12:17:34.153Z,9.91
2022-11-24T12:20:54.909Z,10.51
2022-11-24T12:24:05.798Z,9.96
2022-11-24T12:27:22.457Z,11.21
2022-11-24T12:30:25.203Z,10.27
2022-11-24T12:33:39.417Z,10.24
2022-11-24T12:37:00.236Z,9.59
2022-11-24T12:40:04.842Z,9.60
2022-11-24T12:43:22.047Z,10.03
2022-11-24T12:46:30.171Z,9.86
2022-11-24T12:49:51.619Z,11.12
2022-11-24T12:53:02.916Z,11.09
2022-11-24T12:56:08.690Z,11.17
2022-11-24T12:59:10.600Z,10.22
2022-11-24T13:02:31.573Z,9.81
2022-11-24T13:05:48.957Z,10.06
2022-11-24T13:08:50.910Z,9.25
2022-11-24T13:11:53.467Z,9.44
2022-11-24T13:14:55.337Z,8.94
2022-11-24T13:18:10.254Z,8.92
2022-11-24T13:21:30.861Z,8.75
2022-11-24T13:24:34.674Z,9.03
2022-11-24T13:27:40.698Z,9.17
2022-11-24T13:30:45.232Z,9.94
2022-11-24T13:33:47.114Z,9.09
2022-11-24T13:36:52.755Z,8.62
2022-11-24T13:39:58.860Z,8.62
2022-11-24T13:43:03.395Z,9.48
2022-11-24T13:46:08.024Z,9.45
2022-11-24T13:49:14.020Z,9.21
2022-11-24T13:52:34.614Z,9.56
2022-11-24T13:55:38.756Z,9.05
2022-11-24T13:58:41.437Z,8.61
2022-11-24T14:01:44.766Z,9.40
2022-11-24T14:04:46.947Z,9.42
2022-11-24T14:07:49.071Z,9.52
2022-11-24T14:10:50.942Z,9.52
2022-11-24T14:13:53.167Z,9.33
2022-11-24T14:17:05.714Z,9.27
2022-11-24T14:20:16.621Z,8.66
2022-11-24T14:23:18.486Z,8.89
2022-11-24T14:26:21.643Z,8.86
2022-11-24T14:29:23.961Z,8.72
2022-11-24T14:32:25.988Z,8.22
2022-11-24T14:35:29.385Z,8.16
2022-11-24T14:38:31.620Z,8.17
2022-11-24T14:41:33.627Z,8.31
2022-11-24T14:44:43.778Z,8.24
2022-11-24T14:47:45.670Z,8.54
2022-11-24T14:50:47.733Z,8.78
2022-11-24T14:53:51.474Z,8.81
2022-11-24T14:57:00.810Z,8.79
2022-11-24T15:00:09.541Z,8.08
2022-11-24T15:03:17.160Z,8.49
2022-11-24T15:06:19.670Z,7.95
2022-11-24T15:09:39.979Z,8.11
2022-11-24T15:12:42.693Z,8.13
2022-11-24T15:15:48.690Z,8.04
2022-11-24T15:18:57.747Z,8.02
2022-11-24T15:21:59.754Z,8.51
2022-11-24T15:25:01.769Z,8.62
2022-11-24T15:28:04.294Z,8.63
2022-11-24T15:31:07.220Z,8.03
2022-11-24T15:34:09.934Z,8.41
2022-11-24T15:37:12.819Z,8.85
2022-11-24T15:40:14.801Z,8.59
2022-11-24T15:43:19.678Z,7.72
2022-11-24T15:46:21.660Z,7.72
2022-11-24T15:49:23.804Z,8.51
2022-11-24T15:52:25.711Z,8.40
2022-11-24T15:55:27.602Z,8.55
2022-11-24T15:58:29.497Z,8.93
2022-11-24T16:01:32.525Z,9.05
2022-11-24T16:04:34.853Z,8.20
2022-11-24T16:07:37.059Z,8.20
2022-11-24T16:10:38.983Z,8.25
2022-11-24T16:13:40.900Z,8.35
2022-11-24T16:16:43.358Z,8.25
2022-11-24T16:19:45.490Z,7.86
2022-11-24T16:22:47.289Z,7.63
2022-11-24T16:25:49.330Z,7.80
2022-11-24T16:28:51.175Z,7.69
2022-11-24T16:31:53.380Z,8.06
2022-11-24T16:34:55.241Z,8.30
2022-11-24T16:37:57.117Z,7.88
2022-11-24T16:40:59.295Z,7.79
2022-11-24T16:44:01.121Z,8.08
2022-11-24T16:47:03.018Z,7.37
2022-11-24T16:50:05.124Z,7.52
2022-11-24T16:53:07.085Z,7.72
2022-11-24T16:56:09.092Z,6.91
2022-11-24T16:59:10.975Z,7.70
2022-11-24T17:02:13.318Z,7.39
2022-11-24T17:05:15.565Z,7.63
2022-11-24T17:08:17.475Z,7.60
2022-11-24T17:11:21.042Z,7.33
2022-11-24T17:14:23.002Z,7.24
2022-11-24T17:17:24.812Z,7.38
2022-11-24T17:20:26.599Z,6.96
2022-11-24T17:23:28.677Z,6.84
2022-11-24T17:26:30.804Z,7.40
2022-11-24T17:29:32.855Z,7.31
2022-11-24T17:32:35.092Z,7.29
2022-11-24T17:35:38.211Z,7.79
2022-11-24T17:38:40.043Z,7.05
2022-11-24T17:41:41.948Z,8.20
2022-11-24T17:44:43.780Z,6.93
2022-11-24T17:47:45.845Z,6.90
2022-11-24T17:50:47.908Z,7.00
2022-11-24T17:53:50.735Z,6.73
2022-11-24T17:56:52.740Z,7.21
2022-11-24T17:59:54.634Z,6.68
2022-11-24T18:02:57.908Z,7.21
2022-11-24T18:06:06.673Z,7.07
2022-11-24T18:09:08.573Z,7.41
2022-11-24T18:12:10.425Z,6.93
2022-11-24T18:15:12.315Z,7.71
2022-11-24T18:18:14.175Z,7.55
2022-11-24T18:21:16.793Z,6.80
2022-11-24T18:24:23.917Z,7.02
2022-11-24T18:27:26.232Z,7.15
2022-11-24T18:30:28.133Z,7.09
2022-11-24T18:33:30.204Z,7.28
2022-11-24T18:36:32.159Z,6.61
2022-11-24T18:39:34.103Z,6.47
2022-11-24T18:42:35.988Z,6.38
2022-11-24T18:45:38.206Z,6.92
2022-11-24T18:48:40.216Z,6.95
2022-11-24T18:51:42.091Z,7.38
2022-11-24T18:54:43.997Z,6.42
2022-11-24T18:57:45.840Z,6.43
2022-11-24T19:00:47.675Z,6.62
2022-11-24T19:03:53.486Z,6.87
2022-11-24T19:06:55.347Z,7.11
2022-11-24T19:09:57.260Z,6.71
2022-11-24T19:12:59.120Z,6.37
2022-11-24T19:16:01.108Z,6.16
2022-11-24T19:19:03.050Z,6.76
2022-11-24T19:22:05.072Z,6.69
2022-11-24T19:25:07.330Z,6.68
2022-11-24T19:28:12.601Z,6.62
2022-11-24T19:31:15.068Z,6.37
2022-11-24T19:34:17.093Z,7.19
2022-11-24T19:37:19.150Z,6.23
2022-11-24T19:40:21.015Z,6.77
2022-11-24T19:43:22.845Z,6.83
2022-11-24T19:46:29.422Z,7.25
2022-11-24T19:49:31.397Z,7.16
2022-11-24T19:52:33.197Z,7.23
2022-11-24T19:55:35.040Z,6.27
2022-11-24T19:58:37.208Z,6.45
2022-11-24T20:01:40.050Z,6.66
2022-11-24T20:04:43.035Z,6.33
2022-11-24T20:07:44.909Z,6.83
2022-11-24T20:10:46.770Z,6.92
2022-11-24T20:13:49.863Z,6.66
2022-11-24T20:16:51.878Z,6.48
2022-11-24T20:19:53.800Z,6.57
2022-11-24T20:22:55.747Z,6.54
2022-11-24T20:26:02.367Z,7.02
2022-11-24T20:29:04.660Z,7.30
2022-11-24T20:32:06.573Z,6.46
2022-11-24T20:35:12.316Z,6.82
2022-11-24T20:38:17.089Z,6.83
2022-11-24T20:41:19.990Z,6.99
2022-11-24T20:44:22.196Z,6.80
2022-11-24T20:47:24.106Z,6.74
2022-11-24T20:50:25.969Z,6.90
2022-11-24T20:53:27.918Z,7.03
2022-11-24T20:56:30.686Z,6.28
2022-11-24T20:59:32.615Z,7.13
2022-11-24T21:02:34.509Z,6.65
2022-11-24T21:05:36.431Z,6.90
2022-11-24T21:08:39.016Z,7.07
2022-11-24T21:11:41.034Z,7.35
2022-11-24T21:14:42.913Z,6.72
2022-11-24T21:17:44.779Z,7.35
2022-11-24T21:20:46.809Z,7.26
2022-11-24T21:23:48.671Z,7.61
2022-11-24T21:26:52.540Z,7.46
2022-11-24T21:29:54.399Z,7.56
2022-11-24T21:32:56.243Z,6.77
2022-11-24T21:36:02.635Z,7.18
2022-11-24T21:39:04.572Z,6.70
2022-11-24T21:42:06.492Z,6.94
2022-11-24T21:45:10.810Z,6.98
2022-11-24T21:48:12.701Z,6.82
2022-11-24T21:51:15.683Z,7.14
2022-11-24T21:54:17.554Z,6.61
2022-11-24T21:57:19.407Z,6.17
2022-11-24T22:00:21.265Z,7.57
2022-11-24T22:03:23.216Z,7.52
2022-11-24T22:06:25.079Z,7.74
2022-11-24T22:09:26.968Z,7.15
2022-11-24T22:12:28.949Z,6.75
2022-11-24T22:15:30.768Z,7.11
2022-11-24T22:18:33.235Z,7.45
2022-11-24T22:21:35.042Z,7.24
2022-11-24T22:24:37.186Z,7.36
2022-11-24T22:27:39.593Z,7.65
2022-11-24T22:30:41.421Z,7.53
2022-11-24T22:33:43.954Z,7.73
2022-11-24T22:36:45.781Z,6.91
2022-11-24T22:39:47.608Z,6.47
2022-11-24T22:42:49.497Z,6.81
2022-11-24T22:45:51.411Z,7.29
2022-11-24T22:48:54.060Z,7.70
2022-11-24T22:51:55.920Z,6.96
2022-11-24T22:54:57.857Z,6.86
2022-11-24T22:57:59.685Z,7.10
2022-11-24T23:01:05.444Z,6.55
2022-11-24T23:04:07.356Z,6.92
2022-11-24T23:07:09.772Z,6.77
2022-11-24T23:10:11.838Z,7.00
2022-11-24T23:13:13.669Z,6.58
2022-11-24T23:16:16.903Z,6.15
2022-11-24T23:19:18.867Z,6.75
2022-11-24T23:22:20.701Z,6.98
2022-11-24T23:25:22.644Z,6.99
2022-11-24T23:28:24.494Z,6.61
2022-11-24T23:31:29.336Z,7.33
2022-11-24T23:34:31.383Z,7.79
2022-11-24T23:38:00.001Z,7.78
2022-11-24T23:40:56.188Z,7.31
2022-11-24T23:43:58.154Z,7.92
2022-11-24T23:47:00.031Z,7.82
2022-11-24T23:50:02.047Z,7.24
2022-11-24T23:53:03.880Z,7.23
2022-11-24T23:56:05.980Z,6.51
2022-11-24T23:59:09.909Z,6.74
